sensor_id;sensor_type;location;lat;lon;timestamp;P1;durP1;ratioP1;P2;durP2;ratioP2
45836;SDS011;31548;51.420;-0.040;2023-02-19T00:01:44;18.58;;;1.55;;
45836;SDS011;31548;51.420;-0.040;2023-02-19T00:04:14;22.33;;;1.80;;
45836;SDS011;31548;51.420;-0.040;2023-02-19T00:06:43;24.42;;;2.80;;
45836;SDS011;31548;51.420;-0.040;2023-02-19T00:09:13;29.45;;;3.60;;
45836;SDS011;31548;51.420;-0.040;2023-02-19T00:11:42;18.35;;;2.35;;
45836;SDS011;31548;51.420;-0.040;2023-02-19T00:14:13;12.80;;;1.95;;
45836;SDS011;31548;51.420;-0.040;2023-02-19T00:16:42;24.90;;;1.90;;
45836;SDS011;31548;51.420;-0.040;2023-02-19T00:19:14;15.60;;;2.47;;
45836;SDS011;31548;51.420;-0.040;2023-02-19T00:21:42;18.48;;;1.67;;
45836;SDS011;31548;51.420;-0.040;2023-02-19T00:24:10;20.48;;;3.58;;
45836;SDS011;31548;51.420;-0.040;2023-02-19T00:26:38;15.95;;;2.13;;
45836;SDS011;31548;51.420;-0.040;2023-02-19T00:29:08;16.42;;;2.05;;
45836;SDS011;31548;51.420;-0.040;2023-02-19T00:31:41;15.73;;;1.85;;
45836;SDS011;31548;51.420;-0.040;2023-02-19T00:34:09;15.38;;;1.90;;
45836;SDS011;31548;51.420;-0.040;2023-02-19T00:36:39;19.48;;;1.88;;
45836;SDS011;31548;51.420;-0.040;2023-02-19T00:39:07;15.30;;;1.40;;
45836;SDS011;31548;51.420;-0.040;2023-02-19T00:41:36;14.48;;;1.20;;
45836;SDS011;31548;51.420;-0.040;2023-02-19T00:44:04;13.45;;;1.40;;
45836;SDS011;31548;51.420;-0.040;2023-02-19T00:46:34;14.95;;;1.90;;
45836;SDS011;31548;51.420;-0.040;2023-02-19T00:49:19;14.32;;;1.48;;
45836;SDS011;31548;51.420;-0.040;2023-02-19T00:51:48;19.80;;;1.98;;
45836;SDS011;31548;51.420;-0.040;2023-02-19T00:54:17;17.83;;;2.38;;
45836;SDS011;31548;51.420;-0.040;2023-02-19T00:56:44;21.77;;;2.72;;
45836;SDS011;31548;51.420;-0.040;2023-02-19T00:59:12;24.33;;;2.38;;
45836;SDS011;31548;51.420;-0.040;2023-02-19T01:01:40;15.75;;;2.35;;
45836;SDS011;31548;51.420;-0.040;2023-02-19T01:04:10;29.17;;;2.00;;
45836;SDS011;31548;51.420;-0.040;2023-02-19T01:06:37;17.77;;;2.55;;
45836;SDS011;31548;51.420;-0.040;2023-02-19T01:09:04;22.45;;;1.73;;
45836;SDS011;31548;51.420;-0.040;2023-02-19T01:11:33;23.58;;;2.03;;
45836;SDS011;31548;51.420;-0.040;2023-02-19T01:14:01;18.58;;;2.22;;
45836;SDS011;31548;51.420;-0.040;2023-02-19T01:16:29;15.85;;;1.40;;
45836;SDS011;31548;51.420;-0.040;2023-02-19T01:18:57;20.77;;;2.60;;
45836;SDS011;31548;51.420;-0.040;2023-02-19T01:21:25;17.65;;;2.03;;
45836;SDS011;31548;51.420;-0.040;2023-02-19T01:23:54;22.30;;;2.35;;
45836;SDS011;31548;51.420;-0.040;2023-02-19T01:26:25;18.55;;;3.17;;
45836;SDS011;31548;51.420;-0.040;2023-02-19T01:28:54;21.55;;;2.45;;
45836;SDS011;31548;51.420;-0.040;2023-02-19T01:31:23;20.38;;;1.67;;
45836;SDS011;31548;51.420;-0.040;2023-02-19T01:33:55;27.02;;;5.13;;
45836;SDS011;31548;51.420;-0.040;2023-02-19T01:36:24;16.48;;;1.60;;
45836;SDS011;31548;51.420;-0.040;2023-02-19T01:38:53;28.17;;;2.20;;
45836;SDS011;31548;51.420;-0.040;2023-02-19T01:41:23;27.83;;;2.10;;
45836;SDS011;31548;51.420;-0.040;2023-02-19T01:43:54;22.63;;;2.53;;
45836;SDS011;31548;51.420;-0.040;2023-02-19T01:46:26;18.48;;;2.80;;
45836;SDS011;31548;51.420;-0.040;2023-02-19T01:48:55;11.88;;;2.05;;
45836;SDS011;31548;51.420;-0.040;2023-02-19T01:51:26;19.10;;;2.22;;
45836;SDS011;31548;51.420;-0.040;2023-02-19T01:53:56;16.13;;;1.92;;
45836;SDS011;31548;51.420;-0.040;2023-02-19T01:56:26;16.20;;;1.60;;
45836;SDS011;31548;51.420;-0.040;2023-02-19T01:58:55;18.23;;;3.15;;
45836;SDS011;31548;51.420;-0.040;2023-02-19T02:01:24;16.98;;;1.90;;
45836;SDS011;31548;51.420;-0.040;2023-02-19T02:03:52;17.33;;;2.17;;
45836;SDS011;31548;51.420;-0.040;2023-02-19T02:06:21;23.50;;;2.60;;
45836;SDS011;31548;51.420;-0.040;2023-02-19T02:08:50;16.58;;;1.45;;
45836;SDS011;31548;51.420;-0.040;2023-02-19T02:11:41;11.70;;;1.52;;
45836;SDS011;31548;51.420;-0.040;2023-02-19T02:14:14;26.60;;;3.35;;
45836;SDS011;31548;51.420;-0.040;2023-02-19T02:23:04;20.10;;;2.85;;
45836;SDS011;31548;51.420;-0.040;2023-02-19T02:25:44;16.63;;;2.45;;
45836;SDS011;31548;51.420;-0.040;2023-02-19T02:28:25;20.08;;;1.60;;
45836;SDS011;31548;51.420;-0.040;2023-02-19T02:31:03;14.40;;;2.67;;
45836;SDS011;31548;51.420;-0.040;2023-02-19T02:33:43;21.23;;;1.73;;
45836;SDS011;31548;51.420;-0.040;2023-02-19T02:38:55;26.67;;;2.30;;
45836;SDS011;31548;51.420;-0.040;2023-02-19T02:41:24;18.40;;;1.67;;
45836;SDS011;31548;51.420;-0.040;2023-02-19T02:43:52;17.40;;;3.53;;
45836;SDS011;31548;51.420;-0.040;2023-02-19T02:46:21;14.02;;;2.33;;
45836;SDS011;31548;51.420;-0.040;2023-02-19T02:48:55;13.00;;;1.77;;
45836;SDS011;31548;51.420;-0.040;2023-02-19T02:51:35;16.70;;;2.25;;
45836;SDS011;31548;51.420;-0.040;2023-02-19T02:54:13;19.40;;;2.08;;
45836;SDS011;31548;51.420;-0.040;2023-02-19T02:57:10;18.67;;;2.05;;
45836;SDS011;31548;51.420;-0.040;2023-02-19T02:59:54;11.73;;;2.67;;
45836;SDS011;31548;51.420;-0.040;2023-02-19T03:02:24;21.90;;;1.98;;
45836;SDS011;31548;51.420;-0.040;2023-02-19T03:04:57;24.33;;;3.35;;
45836;SDS011;31548;51.420;-0.040;2023-02-19T03:10:39;12.25;;;1.83;;
45836;SDS011;31548;51.420;-0.040;2023-02-19T03:13:21;15.25;;;1.80;;
45836;SDS011;31548;51.420;-0.040;2023-02-19T03:16:21;20.02;;;2.42;;
45836;SDS011;31548;51.420;-0.040;2023-02-19T03:19:12;17.20;;;2.00;;
45836;SDS011;31548;51.420;-0.040;2023-02-19T03:21:57;14.80;;;2.05;;
45836;SDS011;31548;51.420;-0.040;2023-02-19T03:24:37;12.90;;;1.88;;
45836;SDS011;31548;51.420;-0.040;2023-02-19T03:27:35;12.07;;;1.48;;
45836;SDS011;31548;51.420;-0.040;2023-02-19T03:30:07;24.17;;;3.05;;
45836;SDS011;31548;51.420;-0.040;2023-02-19T03:35:20;10.13;;;1.90;;
45836;SDS011;31548;51.420;-0.040;2023-02-19T03:46:47;14.10;;;1.45;;
45836;SDS011;31548;51.420;-0.040;2023-02-19T03:49:32;16.30;;;1.58;;
45836;SDS011;31548;51.420;-0.040;2023-02-19T03:57:32;7.80;;;1.63;;
45836;SDS011;31548;51.420;-0.040;2023-02-19T04:02:53;13.35;;;1.52;;
45836;SDS011;31548;51.420;-0.040;2023-02-19T04:05:31;9.57;;;1.40;;
45836;SDS011;31548;51.420;-0.040;2023-02-19T04:08:03;9.80;;;1.63;;
45836;SDS011;31548;51.420;-0.040;2023-02-19T04:10:58;12.85;;;1.98;;
45836;SDS011;31548;51.420;-0.040;2023-02-19T04:15:59;17.77;;;1.92;;
45836;SDS011;31548;51.420;-0.040;2023-02-19T04:18:31;10.50;;;1.80;;
45836;SDS011;31548;51.420;-0.040;2023-02-19T04:21:02;19.05;;;1.75;;
45836;SDS011;31548;51.420;-0.040;2023-02-19T04:23:32;14.35;;;1.52;;
45836;SDS011;31548;51.420;-0.040;2023-02-19T04:26:03;13.85;;;1.30;;
45836;SDS011;31548;51.420;-0.040;2023-02-19T04:28:33;16.25;;;1.63;;
45836;SDS011;31548;51.420;-0.040;2023-02-19T04:31:01;11.82;;;1.52;;
45836;SDS011;31548;51.420;-0.040;2023-02-19T04:33:28;13.57;;;1.50;;
45836;SDS011;31548;51.420;-0.040;2023-02-19T04:35:56;11.98;;;1.63;;
45836;SDS011;31548;51.420;-0.040;2023-02-19T04:38:23;11.98;;;1.00;;
45836;SDS011;31548;51.420;-0.040;2023-02-19T04:40:50;18.02;;;1.60;;
45836;SDS011;31548;51.420;-0.040;2023-02-19T04:43:17;16.33;;;1.42;;
45836;SDS011;31548;51.420;-0.040;2023-02-19T04:45:45;14.32;;;1.45;;
45836;SDS011;31548;51.420;-0.040;2023-02-19T04:48:12;11.57;;;1.20;;
45836;SDS011;31548;51.420;-0.040;2023-02-19T04:50:40;9.30;;;1.13;;
45836;SDS011;31548;51.420;-0.040;2023-02-19T04:53:07;9.27;;;1.33;;
45836;SDS011;31548;51.420;-0.040;2023-02-19T04:55:35;14.32;;;1.52;;
45836;SDS011;31548;51.420;-0.040;2023-02-19T04:58:04;6.47;;;0.80;;
45836;SDS011;31548;51.420;-0.040;2023-02-19T05:00:31;10.63;;;1.45;;
45836;SDS011;31548;51.420;-0.040;2023-02-19T05:02:59;13.07;;;1.70;;
45836;SDS011;31548;51.420;-0.040;2023-02-19T05:05:27;8.13;;;0.85;;
45836;SDS011;31548;51.420;-0.040;2023-02-19T05:07:54;13.63;;;1.00;;
45836;SDS011;31548;51.420;-0.040;2023-02-19T05:10:21;8.50;;;1.00;;
45836;SDS011;31548;51.420;-0.040;2023-02-19T05:12:49;10.57;;;1.00;;
45836;SDS011;31548;51.420;-0.040;2023-02-19T05:15:16;7.50;;;1.23;;
45836;SDS011;31548;51.420;-0.040;2023-02-19T05:17:43;9.45;;;1.42;;
45836;SDS011;31548;51.420;-0.040;2023-02-19T05:20:11;5.70;;;0.95;;
45836;SDS011;31548;51.420;-0.040;2023-02-19T05:22:39;8.80;;;1.10;;
45836;SDS011;31548;51.420;-0.040;2023-02-19T05:25:06;11.43;;;0.93;;
45836;SDS011;31548;51.420;-0.040;2023-02-19T05:27:34;9.52;;;0.90;;
45836;SDS011;31548;51.420;-0.040;2023-02-19T05:30:01;7.43;;;1.08;;
45836;SDS011;31548;51.420;-0.040;2023-02-19T05:32:29;11.32;;;0.80;;
45836;SDS011;31548;51.420;-0.040;2023-02-19T05:34:56;4.63;;;0.70;;
45836;SDS011;31548;51.420;-0.040;2023-02-19T05:37:23;9.60;;;0.80;;
45836;SDS011;31548;51.420;-0.040;2023-02-19T05:39:50;6.65;;;0.93;;
45836;SDS011;31548;51.420;-0.040;2023-02-19T05:42:18;14.07;;;1.20;;
45836;SDS011;31548;51.420;-0.040;2023-02-19T05:44:45;7.63;;;0.90;;
45836;SDS011;31548;51.420;-0.040;2023-02-19T05:47:12;11.52;;;1.00;;
45836;SDS011;31548;51.420;-0.040;2023-02-19T05:49:39;10.15;;;0.90;;
45836;SDS011;31548;51.420;-0.040;2023-02-19T05:52:07;4.97;;;0.63;;
45836;SDS011;31548;51.420;-0.040;2023-02-19T05:54:34;7.47;;;0.80;;
45836;SDS011;31548;51.420;-0.040;2023-02-19T05:57:01;8.02;;;0.65;;
45836;SDS011;31548;51.420;-0.040;2023-02-19T05:59:29;9.85;;;0.90;;
45836;SDS011;31548;51.420;-0.040;2023-02-19T06:01:56;5.47;;;0.80;;
45836;SDS011;31548;51.420;-0.040;2023-02-19T06:04:24;13.10;;;0.80;;
45836;SDS011;31548;51.420;-0.040;2023-02-19T06:06:51;7.05;;;0.63;;
45836;SDS011;31548;51.420;-0.040;2023-02-19T06:09:18;5.75;;;0.57;;
45836;SDS011;31548;51.420;-0.040;2023-02-19T06:11:45;8.07;;;0.70;;
45836;SDS011;31548;51.420;-0.040;2023-02-19T06:14:13;5.45;;;0.73;;
45836;SDS011;31548;51.420;-0.040;2023-02-19T06:16:40;8.82;;;0.73;;
45836;SDS011;31548;51.420;-0.040;2023-02-19T06:19:08;8.60;;;0.80;;
45836;SDS011;31548;51.420;-0.040;2023-02-19T06:21:35;13.65;;;0.95;;
45836;SDS011;31548;51.420;-0.040;2023-02-19T06:24:03;7.03;;;0.55;;
45836;SDS011;31548;51.420;-0.040;2023-02-19T06:26:34;4.13;;;0.60;;
45836;SDS011;31548;51.420;-0.040;2023-02-19T06:29:02;7.38;;;0.80;;
45836;SDS011;31548;51.420;-0.040;2023-02-19T06:31:30;9.65;;;0.85;;
45836;SDS011;31548;51.420;-0.040;2023-02-19T06:33:57;7.45;;;0.70;;
45836;SDS011;31548;51.420;-0.040;2023-02-19T06:36:24;6.47;;;0.85;;
45836;SDS011;31548;51.420;-0.040;2023-02-19T06:38:52;12.65;;;0.70;;
45836;SDS011;31548;51.420;-0.040;2023-02-19T06:41:19;8.38;;;1.25;;
45836;SDS011;31548;51.420;-0.040;2023-02-19T06:43:46;11.00;;;1.25;;
45836;SDS011;31548;51.420;-0.040;2023-02-19T06:46:14;9.88;;;1.08;;
45836;SDS011;31548;51.420;-0.040;2023-02-19T06:48:42;8.50;;;0.85;;
45836;SDS011;31548;51.420;-0.040;2023-02-19T06:51:14;13.30;;;0.75;;
45836;SDS011;31548;51.420;-0.040;2023-02-19T06:53:52;4.55;;;1.08;;
45836;SDS011;31548;51.420;-0.040;2023-02-19T06:56:20;11.65;;;0.80;;
45836;SDS011;31548;51.420;-0.040;2023-02-19T06:58:53;15.20;;;0.90;;
45836;SDS011;31548;51.420;-0.040;2023-02-19T07:01:22;6.90;;;0.80;;
45836;SDS011;31548;51.420;-0.040;2023-02-19T07:03:50;8.55;;;0.90;;
45836;SDS011;31548;51.420;-0.040;2023-02-19T07:06:18;6.55;;;0.75;;
45836;SDS011;31548;51.420;-0.040;2023-02-19T07:08:47;11.30;;;1.10;;
45836;SDS011;31548;51.420;-0.040;2023-02-19T07:11:16;10.38;;;0.98;;
45836;SDS011;31548;51.420;-0.040;2023-02-19T07:13:44;7.97;;;0.68;;
45836;SDS011;31548;51.420;-0.040;2023-02-19T07:16:12;4.68;;;0.70;;
45836;SDS011;31548;51.420;-0.040;2023-02-19T07:18:39;11.48;;;1.10;;
45836;SDS011;31548;51.420;-0.040;2023-02-19T07:21:08;10.15;;;1.48;;
45836;SDS011;31548;51.420;-0.040;2023-02-19T07:23:38;7.32;;;0.80;;
45836;SDS011;31548;51.420;-0.040;2023-02-19T07:26:13;12.75;;;1.02;;
45836;SDS011;31548;51.420;-0.040;2023-02-19T07:28:43;8.05;;;1.13;;
45836;SDS011;31548;51.420;-0.040;2023-02-19T07:31:12;10.73;;;0.95;;
45836;SDS011;31548;51.420;-0.040;2023-02-19T07:33:41;7.05;;;0.60;;
45836;SDS011;31548;51.420;-0.040;2023-02-19T07:36:10;5.53;;;0.65;;
45836;SDS011;31548;51.420;-0.040;2023-02-19T07:38:39;7.55;;;0.88;;
45836;SDS011;31548;51.420;-0.040;2023-02-19T07:41:06;5.53;;;0.50;;
45836;SDS011;31548;51.420;-0.040;2023-02-19T07:43:34;9.13;;;0.82;;
45836;SDS011;31548;51.420;-0.040;2023-02-19T07:46:06;5.30;;;0.85;;
45836;SDS011;31548;51.420;-0.040;2023-02-19T07:48:36;6.72;;;0.70;;
45836;SDS011;31548;51.420;-0.040;2023-02-19T07:51:05;3.30;;;0.77;;
45836;SDS011;31548;51.420;-0.040;2023-02-19T07:53:34;11.93;;;1.33;;
45836;SDS011;31548;51.420;-0.040;2023-02-19T07:56:02;8.60;;;0.93;;
45836;SDS011;31548;51.420;-0.040;2023-02-19T07:58:31;8.77;;;0.70;;
45836;SDS011;31548;51.420;-0.040;2023-02-19T08:01:09;4.55;;;0.73;;
45836;SDS011;31548;51.420;-0.040;2023-02-19T08:04:05;3.25;;;0.38;;
45836;SDS011;31548;51.420;-0.040;2023-02-19T08:06:33;4.95;;;0.90;;
45836;SDS011;31548;51.420;-0.040;2023-02-19T08:09:00;8.70;;;0.77;;
45836;SDS011;31548;51.420;-0.040;2023-02-19T08:11:29;7.60;;;0.80;;
45836;SDS011;31548;51.420;-0.040;2023-02-19T08:14:14;7.88;;;1.10;;
45836;SDS011;31548;51.420;-0.040;2023-02-19T08:16:51;7.20;;;0.75;;
45836;SDS011;31548;51.420;-0.040;2023-02-19T08:19:19;16.08;;;0.93;;
45836;SDS011;31548;51.420;-0.040;2023-02-19T08:21:47;9.00;;;0.90;;
45836;SDS011;31548;51.420;-0.040;2023-02-19T08:24:14;11.73;;;1.35;;
45836;SDS011;31548;51.420;-0.040;2023-02-19T08:26:41;10.02;;;1.08;;
45836;SDS011;31548;51.420;-0.040;2023-02-19T08:29:09;13.75;;;1.48;;
45836;SDS011;31548;51.420;-0.040;2023-02-19T08:31:36;9.02;;;0.90;;
45836;SDS011;31548;51.420;-0.040;2023-02-19T08:34:03;3.47;;;0.52;;
45836;SDS011;31548;51.420;-0.040;2023-02-19T08:36:31;9.13;;;0.90;;
45836;SDS011;31548;51.420;-0.040;2023-02-19T08:38:58;3.72;;;0.63;;
45836;SDS011;31548;51.420;-0.040;2023-02-19T08:41:25;13.38;;;1.02;;
45836;SDS011;31548;51.420;-0.040;2023-02-19T08:43:53;6.80;;;0.70;;
45836;SDS011;31548;51.420;-0.040;2023-02-19T08:46:20;7.50;;;0.70;;
45836;SDS011;31548;51.420;-0.040;2023-02-19T08:48:48;9.30;;;0.88;;
45836;SDS011;31548;51.420;-0.040;2023-02-19T08:51:15;3.53;;;0.60;;
45836;SDS011;31548;51.420;-0.040;2023-02-19T08:53:43;5.43;;;0.77;;
45836;SDS011;31548;51.420;-0.040;2023-02-19T08:56:11;6.80;;;0.65;;
45836;SDS011;31548;51.420;-0.040;2023-02-19T08:58:40;3.65;;;0.80;;
45836;SDS011;31548;51.420;-0.040;2023-02-19T09:01:08;12.30;;;0.93;;
45836;SDS011;31548;51.420;-0.040;2023-02-19T09:03:38;9.52;;;0.55;;
45836;SDS011;31548;51.420;-0.040;2023-02-19T09:06:06;7.97;;;2.17;;
45836;SDS011;31548;51.420;-0.040;2023-02-19T09:08:34;7.70;;;0.90;;
45836;SDS011;31548;51.420;-0.040;2023-02-19T09:11:02;7.07;;;1.80;;
45836;SDS011;31548;51.420;-0.040;2023-02-19T09:13:32;9.10;;;0.70;;
45836;SDS011;31548;51.420;-0.040;2023-02-19T09:16:01;4.40;;;1.02;;
45836;SDS011;31548;51.420;-0.040;2023-02-19T09:18:30;4.50;;;1.00;;
45836;SDS011;31548;51.420;-0.040;2023-02-19T09:21:01;7.82;;;0.57;;
45836;SDS011;31548;51.420;-0.040;2023-02-19T09:23:33;5.47;;;0.60;;
45836;SDS011;31548;51.420;-0.040;2023-02-19T09:26:02;7.75;;;0.60;;
45836;SDS011;31548;51.420;-0.040;2023-02-19T09:28:34;3.08;;;0.50;;
45836;SDS011;31548;51.420;-0.040;2023-02-19T09:31:04;4.07;;;0.70;;
45836;SDS011;31548;51.420;-0.040;2023-02-19T09:33:33;3.55;;;0.60;;
45836;SDS011;31548;51.420;-0.040;2023-02-19T09:36:01;3.08;;;0.70;;
45836;SDS011;31548;51.420;-0.040;2023-02-19T09:38:29;6.78;;;0.82;;
45836;SDS011;31548;51.420;-0.040;2023-02-19T09:40:56;4.15;;;0.55;;
45836;SDS011;31548;51.420;-0.040;2023-02-19T09:43:26;1.55;;;0.50;;
45836;SDS011;31548;51.420;-0.040;2023-02-19T09:46:03;7.10;;;0.70;;
45836;SDS011;31548;51.420;-0.040;2023-02-19T09:48:38;6.50;;;0.60;;
45836;SDS011;31548;51.420;-0.040;2023-02-19T09:51:05;6.70;;;1.48;;
45836;SDS011;31548;51.420;-0.040;2023-02-19T09:53:39;8.88;;;0.65;;
45836;SDS011;31548;51.420;-0.040;2023-02-19T09:56:09;2.88;;;0.70;;
45836;SDS011;31548;51.420;-0.040;2023-02-19T09:58:45;5.35;;;0.60;;
45836;SDS011;31548;51.420;-0.040;2023-02-19T10:01:14;6.95;;;0.90;;
45836;SDS011;31548;51.420;-0.040;2023-02-19T10:03:45;6.72;;;0.70;;
45836;SDS011;31548;51.420;-0.040;2023-02-19T10:06:18;6.20;;;0.40;;
45836;SDS011;31548;51.420;-0.040;2023-02-19T10:08:51;6.50;;;0.50;;
45836;SDS011;31548;51.420;-0.040;2023-02-19T10:11:22;5.32;;;0.40;;
45836;SDS011;31548;51.420;-0.040;2023-02-19T10:14:02;5.72;;;0.50;;
45836;SDS011;31548;51.420;-0.040;2023-02-19T10:16:38;5.53;;;0.40;;
45836;SDS011;31548;51.420;-0.040;2023-02-19T10:19:09;6.65;;;0.50;;
45836;SDS011;31548;51.420;-0.040;2023-02-19T10:21:38;4.07;;;0.50;;
45836;SDS011;31548;51.420;-0.040;2023-02-19T10:24:05;4.68;;;0.43;;
45836;SDS011;31548;51.420;-0.040;2023-02-19T10:26:33;1.70;;;0.40;;
45836;SDS011;31548;51.420;-0.040;2023-02-19T10:29:02;2.38;;;0.52;;
45836;SDS011;31548;51.420;-0.040;2023-02-19T10:31:31;4.30;;;0.32;;
45836;SDS011;31548;51.420;-0.040;2023-02-19T10:34:00;2.22;;;0.43;;
45836;SDS011;31548;51.420;-0.040;2023-02-19T10:36:31;2.28;;;0.40;;
45836;SDS011;31548;51.420;-0.040;2023-02-19T10:39:23;4.68;;;0.40;;
45836;SDS011;31548;51.420;-0.040;2023-02-19T10:42:05;4.25;;;0.40;;
45836;SDS011;31548;51.420;-0.040;2023-02-19T10:44:41;8.38;;;0.60;;
45836;SDS011;31548;51.420;-0.040;2023-02-19T10:47:15;3.22;;;0.43;;
45836;SDS011;31548;51.420;-0.040;2023-02-19T10:49:44;2.73;;;0.50;;
45836;SDS011;31548;51.420;-0.040;2023-02-19T10:52:15;6.05;;;0.40;;
45836;SDS011;31548;51.420;-0.040;2023-02-19T10:54:52;2.67;;;0.40;;
45836;SDS011;31548;51.420;-0.040;2023-02-19T10:57:28;4.45;;;0.68;;
45836;SDS011;31548;51.420;-0.040;2023-02-19T11:02:45;1.00;;;0.30;;
45836;SDS011;31548;51.420;-0.040;2023-02-19T11:07:46;1.42;;;0.40;;
45836;SDS011;31548;51.420;-0.040;2023-02-19T11:10:23;3.72;;;0.47;;
45836;SDS011;31548;51.420;-0.040;2023-02-19T11:12:53;3.50;;;0.40;;
45836;SDS011;31548;51.420;-0.040;2023-02-19T11:15:32;1.70;;;0.40;;
45836;SDS011;31548;51.420;-0.040;2023-02-19T11:20:59;5.32;;;0.50;;
45836;SDS011;31548;51.420;-0.040;2023-02-19T11:23:28;3.63;;;0.40;;
45836;SDS011;31548;51.420;-0.040;2023-02-19T11:26:03;2.78;;;0.47;;
45836;SDS011;31548;51.420;-0.040;2023-02-19T11:28:38;3.88;;;0.28;;
45836;SDS011;31548;51.420;-0.040;2023-02-19T11:33:53;2.25;;;0.47;;
45836;SDS011;31548;51.420;-0.040;2023-02-19T11:36:27;5.18;;;0.55;;
45836;SDS011;31548;51.420;-0.040;2023-02-19T11:38:57;1.35;;;0.40;;
45836;SDS011;31548;51.420;-0.040;2023-02-19T11:44:43;3.15;;;0.45;;
45836;SDS011;31548;51.420;-0.040;2023-02-19T11:50:08;8.48;;;0.47;;
45836;SDS011;31548;51.420;-0.040;2023-02-19T11:53:21;3.35;;;0.45;;
45836;SDS011;31548;51.420;-0.040;2023-02-19T12:09:21;2.20;;;0.30;;
45836;SDS011;31548;51.420;-0.040;2023-02-19T12:15:02;3.85;;;0.32;;
45836;SDS011;31548;51.420;-0.040;2023-02-19T12:20:42;1.58;;;0.35;;
45836;SDS011;31548;51.420;-0.040;2023-02-19T12:23:32;1.83;;;0.50;;
45836;SDS011;31548;51.420;-0.040;2023-02-19T12:29:21;4.18;;;0.65;;
45836;SDS011;31548;51.420;-0.040;2023-02-19T12:37:27;4.50;;;0.47;;
45836;SDS011;31548;51.420;-0.040;2023-02-19T12:43:16;1.35;;;0.30;;
45836;SDS011;31548;51.420;-0.040;2023-02-19T12:45:51;3.55;;;0.30;;
45836;SDS011;31548;51.420;-0.040;2023-02-19T12:51:13;2.08;;;0.30;;
45836;SDS011;31548;51.420;-0.040;2023-02-19T12:54:09;1.02;;;0.20;;
45836;SDS011;31548;51.420;-0.040;2023-02-19T12:56:42;3.80;;;0.63;;
45836;SDS011;31548;51.420;-0.040;2023-02-19T13:12:57;2.67;;;0.50;;
45836;SDS011;31548;51.420;-0.040;2023-02-19T13:15:40;3.05;;;0.40;;
45836;SDS011;31548;51.420;-0.040;2023-02-19T13:18:21;2.17;;;0.30;;
45836;SDS011;31548;51.420;-0.040;2023-02-19T13:20:55;3.00;;;0.30;;
45836;SDS011;31548;51.420;-0.040;2023-02-19T13:23:24;0.98;;;0.40;;
45836;SDS011;31548;51.420;-0.040;2023-02-19T13:37:13;3.75;;;0.50;;
45836;SDS011;31548;51.420;-0.040;2023-02-19T13:39:46;2.28;;;0.45;;
45836;SDS011;31548;51.420;-0.040;2023-02-19T13:42:25;3.67;;;0.30;;
45836;SDS011;31548;51.420;-0.040;2023-02-19T13:44:56;3.33;;;0.60;;
45836;SDS011;31548;51.420;-0.040;2023-02-19T13:50:22;3.45;;;0.50;;
45836;SDS011;31548;51.420;-0.040;2023-02-19T13:52:52;2.45;;;0.30;;
45836;SDS011;31548;51.420;-0.040;2023-02-19T14:06:21;1.20;;;0.32;;
45836;SDS011;31548;51.420;-0.040;2023-02-19T14:08:49;6.43;;;0.57;;
45836;SDS011;31548;51.420;-0.040;2023-02-19T14:16:55;4.00;;;0.40;;
45836;SDS011;31548;51.420;-0.040;2023-02-19T14:19:44;3.97;;;0.52;;
45836;SDS011;31548;51.420;-0.040;2023-02-19T14:34:17;2.28;;;0.60;;
45836;SDS011;31548;51.420;-0.040;2023-02-19T14:39:19;7.43;;;0.60;;
45836;SDS011;31548;51.420;-0.040;2023-02-19T14:44:24;5.72;;;0.70;;
45836;SDS011;31548;51.420;-0.040;2023-02-19T14:47:13;5.75;;;1.30;;
45836;SDS011;31548;51.420;-0.040;2023-02-19T14:52:23;2.67;;;0.47;;
45836;SDS011;31548;51.420;-0.040;2023-02-19T14:54:55;6.20;;;0.95;;
45836;SDS011;31548;51.420;-0.040;2023-02-19T14:57:25;2.17;;;0.70;;
45836;SDS011;31548;51.420;-0.040;2023-02-19T14:59:56;4.40;;;0.50;;
45836;SDS011;31548;51.420;-0.040;2023-02-19T15:02:30;2.08;;;0.50;;
45836;SDS011;31548;51.420;-0.040;2023-02-19T15:04:57;8.63;;;0.50;;
45836;SDS011;31548;51.420;-0.040;2023-02-19T15:07:29;1.90;;;0.40;;
45836;SDS011;31548;51.420;-0.040;2023-02-19T15:10:01;3.17;;;0.98;;
45836;SDS011;31548;51.420;-0.040;2023-02-19T15:12:37;6.20;;;0.70;;
45836;SDS011;31548;51.420;-0.040;2023-02-19T15:15:16;2.72;;;0.50;;
45836;SDS011;31548;51.420;-0.040;2023-02-19T15:17:47;3.70;;;0.60;;
45836;SDS011;31548;51.420;-0.040;2023-02-19T15:20:17;8.00;;;0.85;;
45836;SDS011;31548;51.420;-0.040;2023-02-19T15:22:48;4.03;;;0.85;;
45836;SDS011;31548;51.420;-0.040;2023-02-19T15:25:16;2.88;;;0.60;;
45836;SDS011;31548;51.420;-0.040;2023-02-19T15:27:46;4.90;;;0.60;;
45836;SDS011;31548;51.420;-0.040;2023-02-19T15:30:24;5.90;;;0.65;;
45836;SDS011;31548;51.420;-0.040;2023-02-19T15:32:57;6.00;;;0.68;;
45836;SDS011;31548;51.420;-0.040;2023-02-19T15:35:26;2.58;;;0.55;;
45836;SDS011;31548;51.420;-0.040;2023-02-19T15:37:54;4.47;;;0.70;;
45836;SDS011;31548;51.420;-0.040;2023-02-19T15:40:23;2.70;;;0.60;;
45836;SDS011;31548;51.420;-0.040;2023-02-19T15:42:56;4.15;;;0.65;;
45836;SDS011;31548;51.420;-0.040;2023-02-19T15:45:29;6.47;;;0.50;;
45836;SDS011;31548;51.420;-0.040;2023-02-19T15:48:07;4.47;;;0.73;;
45836;SDS011;31548;51.420;-0.040;2023-02-19T15:50:50;5.93;;;0.80;;
45836;SDS011;31548;51.420;-0.040;2023-02-19T15:53:23;4.60;;;0.60;;
45836;SDS011;31548;51.420;-0.040;2023-02-19T15:58:40;5.38;;;0.70;;
45836;SDS011;31548;51.420;-0.040;2023-02-19T16:01:19;3.00;;;0.73;;
45836;SDS011;31548;51.420;-0.040;2023-02-19T16:03:53;4.78;;;1.30;;
45836;SDS011;31548;51.420;-0.040;2023-02-19T16:06:22;6.65;;;0.98;;
45836;SDS011;31548;51.420;-0.040;2023-02-19T16:13:49;3.75;;;0.70;;
45836;SDS011;31548;51.420;-0.040;2023-02-19T16:16:20;3.47;;;0.60;;
45836;SDS011;31548;51.420;-0.040;2023-02-19T16:18:53;7.47;;;0.88;;
45836;SDS011;31548;51.420;-0.040;2023-02-19T16:21:22;3.03;;;0.70;;
45836;SDS011;31548;51.420;-0.040;2023-02-19T16:23:55;3.03;;;0.47;;
45836;SDS011;31548;51.420;-0.040;2023-02-19T16:26:39;1.70;;;0.50;;
45836;SDS011;31548;51.420;-0.040;2023-02-19T16:29:49;3.30;;;0.30;;
45836;SDS011;31548;51.420;-0.040;2023-02-19T16:31:59;4.68;;;0.50;;
45836;SDS011;31548;51.420;-0.040;2023-02-19T16:34:44;3.85;;;0.60;;
45836;SDS011;31548;51.420;-0.040;2023-02-19T16:37:35;3.63;;;0.60;;
45836;SDS011;31548;51.420;-0.040;2023-02-19T16:42:34;2.50;;;0.70;;
45836;SDS011;31548;51.420;-0.040;2023-02-19T16:45:24;3.70;;;1.02;;
45836;SDS011;31548;51.420;-0.040;2023-02-19T16:47:53;8.95;;;1.35;;
45836;SDS011;31548;51.420;-0.040;2023-02-19T16:50:21;2.72;;;0.60;;
45836;SDS011;31548;51.420;-0.040;2023-02-19T16:52:57;3.80;;;1.75;;
45836;SDS011;31548;51.420;-0.040;2023-02-19T16:55:26;3.22;;;0.60;;
45836;SDS011;31548;51.420;-0.040;2023-02-19T16:57:54;2.53;;;0.70;;
45836;SDS011;31548;51.420;-0.040;2023-02-19T17:00:23;4.07;;;1.15;;
45836;SDS011;31548;51.420;-0.040;2023-02-19T17:02:56;4.20;;;1.42;;
45836;SDS011;31548;51.420;-0.040;2023-02-19T17:05:26;2.85;;;1.27;;
45836;SDS011;31548;51.420;-0.040;2023-02-19T17:07:56;8.15;;;1.35;;
45836;SDS011;31548;51.420;-0.040;2023-02-19T17:10:24;3.25;;;1.33;;
45836;SDS011;31548;51.420;-0.040;2023-02-19T17:12:53;6.53;;;2.20;;
45836;SDS011;31548;51.420;-0.040;2023-02-19T17:15:22;9.77;;;3.97;;
45836;SDS011;31548;51.420;-0.040;2023-02-19T17:17:50;10.07;;;4.43;;
45836;SDS011;31548;51.420;-0.040;2023-02-19T17:20:20;7.57;;;3.20;;
45836;SDS011;31548;51.420;-0.040;2023-02-19T17:22:53;6.43;;;2.10;;
45836;SDS011;31548;51.420;-0.040;2023-02-19T17:25:21;8.20;;;1.55;;
45836;SDS011;31548;51.420;-0.040;2023-02-19T17:27:49;5.95;;;1.85;;
45836;SDS011;31548;51.420;-0.040;2023-02-19T17:30:28;5.15;;;1.27;;
45836;SDS011;31548;51.420;-0.040;2023-02-19T17:32:57;8.20;;;1.33;;
45836;SDS011;31548;51.420;-0.040;2023-02-19T17:35:25;7.43;;;1.55;;
45836;SDS011;31548;51.420;-0.040;2023-02-19T17:37:52;4.72;;;1.27;;